Mercer, WI

11:21 PM CST on November 28, 2014 (GMT -0600)
Gogebic-Iron County | Change Station
CLOSE
Current Station
Airport
Location: Ironwood,
Elevation: 1230 ft
Nearby Weather Stations

Elev 1230 ft 46.53 °N, 90.13 °W | Updated 6 minutes ago

Overcast
Overcast
18 °F
Feels Like 12 °F
N
4
Wind Variable Wind from South

Today
High -- | Low -- °F
--% Chance of Precip.
Yesterday
High -- | Low -- °F
Precip. -- in
7:18 AM 4:17 PM
Waxing Crescent, 48% visible
Pressure 29.74 in
Visibility 3.0 miles
Clouds Mostly Cloudy 1500 ft
Overcast 2200 ft
Windchill 12 °F
Dew Point 14 °F
Humidity 86%
Rainfall 0.00 in
Snow Depth Not available.
UV 0 out of 12
Pollen .10 out of 12
Air Quality Not available.
Flu Activity Not available.
METAR KIWD 290515Z AUTO 17003KT 3SM BKN015 OVC022 M08/M10 A2974 RMK AO1 VIS 2V4

More Conditions Fewer Conditions

Pressure 29.74 in
Visibility 3.0 miles
Clouds Mostly Cloudy 1500 ft
Overcast 2200 ft
Windchill 12 °F
Dew Point 14 °F
Humidity 86%
Rainfall 0.00 in
Snow Depth Not available.
UV 0 out of 12
Pollen .10 out of 12
Air Quality Not available.
Flu Activity Not available.
METAR KIWD 290515Z AUTO 17003KT 3SM BKN015 OVC022 M08/M10 A2974 RMK AO1 VIS 2V4

More Conditions Fewer Conditions

10-Day Weather Forecast

Almanac

Astronomy

Nov. 28, 2014 Rise Set
Actual Time
Civil Twilight
Nautical Twilight
Astronomical Twilight
Moon
Length of Visible Light
Length of Day
Tomorrow will be .
, % of the Moon is Illuminated

Today's Extremes

State Highs State Lows

Community

WunderPhotos

Upload Photos

1,774,419 photos uploaded!

WunderBlogs® & News

Nearby

Air Quality

  Air Quality AQ Index Pollutant
Not available.

Snow Depth

Station Depth Elevation

Earthquake Activity

City Distance Mag. Time & Date
Minimum magnitude displayed is 2.5.

Coastal Water Temperatures

Place Temperature

Nearby Weather Stations